Edzard Schulte — 2CVX9 — position and weather

sailwx.info

Track history (hours):
 
Tides and Currents Weather Stations Pressure Air Temp Water Temp Dewpoint Dewpoint Depression Visibility Wind Speed Wind Dir Waves Ship Positions

Edzard Schulte

Last reported at 2015-Mar-31 12:32 UTC. Time now 2015-Mar-31 20:46 UTC.
Position N 50°34' E 000°28'.

Length 145 m; draft 6.6 m.

Type: Tanker. MMSI: 235076245.

Date/timePositionNaut miles runAvg speedWind from/ knotsBaromVisibWave heightAir tempDewpointWater temp
2015-Mar-31 12:32N 50°34' E 000°28'1110.7
2015-Mar-31 11:33N 50°38' E 000°43'1010.2
2015-Mar-31 10:33N 50°44' E 000°57'17 8.4
2015-Mar-31 08:32N 50°54' E 001°18'7 7.4
2015-Mar-31 07:33N 50°60' E 001°25'8 7.7
2015-Mar-31 06:32N 51°06' E 001°33'9 9.0
2015-Mar-31 05:34N 51°12' E 001°44'10 9.5
2015-Mar-31 04:33N 51°20' E 001°52'8 8.3
2015-Mar-31 03:34N 51°24' E 002°03'9 8.3
2015-Mar-31 02:31N 51°21' E 002°16'5 5.5
2015-Mar-31 01:33N 51°22' E 002°24'6 6.6
2015-Mar-31 00:33N 51°23' E 002°35'7 7.4
2015-Mar-30 23:33N 51°22' E 002°46'9 9.0
2015-Mar-30 22:33N 51°24' E 003°00'10 9.7
2015-Mar-30 21:31N 51°25' E 003°17'9 9.5
2015-Mar-30 20:33N 51°26' E 003°31'7 6.9
2015-Mar-30 19:33N 51°26' E 003°42'7 7.1
2015-Mar-30 18:33N 51°20' E 003°49'2 1.7
2015-Mar-30 17:33N 51°18' E 003°50'7 6.8
2015-Mar-30 16:33N 51°12' E 003°48'3 2.4
2015-Mar-30 15:19N 51°09' E 003°47'0 0.0
2015-Mar-30 14:31N 51°09' E 003°47'0 0.0
2015-Mar-29 14:12N 51°09' E 003°47'0 0.1
2015-Mar-29 13:33N 51°09' E 003°47'5 5.1
2015-Mar-29 12:34N 51°14' E 003°48'6 5.8
2015-Mar-29 11:33N 51°20' E 003°49'1 1.0
2015-Mar-29 10:33N 51°21' E 003°49'7 7.6
2015-Mar-29 09:34N 51°26' E 003°40'6 6.3
2015-Mar-29 08:33N 51°25' E 003°30'7 6.6
2015-Mar-29 07:33N 51°24' E 003°20'10 7.7
2015-Mar-29 06:11N 51°24' E 003°03'710.1
2015-Mar-29 05:32N 51°22' E 002°54'9 8.4
2015-Mar-29 04:26N 51°22' E 002°39'6 6.7
2015-Mar-29 03:31N 51°22' E 002°29'1110.8
2015-Mar-29 02:32N 51°17' E 002°14'1111.3
2015-Mar-29 01:33N 51°12' E 001°58'1313.2
2015-Mar-29 00:33N 51°05' E 001°40'1413.5
2015-Mar-28 23:30N 50°54' E 001°27'4912.1
2015-Mar-28 19:27N 50°25' E 000°24'44010.7
2015-Mar-27 02:28N 52°04' W 011°02'1011.2
2015-Mar-27 01:32N 52°14' W 010°58'3210.6
2015-Mar-26 22:33N 52°31' W 010°15'10 9.8
2015-Mar-26 21:33N 52°31' W 009°59'3 0.1
2015-Mar-25 16:32N 52°31' W 010°04'1312.4
2015-Mar-25 15:27N 52°25' W 010°24'1412.7
2015-Mar-25 14:21N 52°18' W 010°43'1012.3
2015-Mar-25 13:32N 52°11' W 010°55'  
Track history (hours):
 
Tides and Currents Weather Stations Pressure Air Temp Water Temp Dewpoint Dewpoint Depression Visibility Wind Speed Wind Dir Waves Ship Positions

Edzard Schulte

Last reported at 2015-Mar-31 12:32 UTC. Time now 2015-Mar-31 20:46 UTC.
Position N 50°34' E 000°28'.

Length 145 m; draft 6.6 m.

Type: Tanker. MMSI: 235076245.

Date/timePositionNaut miles runAvg speedWind from/ knotsBaromVisibWave heightAir tempDewpointWater temp
2015-Mar-31 12:32N 50°34' E 000°28'1110.7
2015-Mar-31 11:33N 50°38' E 000°43'1010.2
2015-Mar-31 10:33N 50°44' E 000°57'17 8.4
2015-Mar-31 08:32N 50°54' E 001°18'7 7.4
2015-Mar-31 07:33N 50°60' E 001°25'8 7.7
2015-Mar-31 06:32N 51°06' E 001°33'9 9.0
2015-Mar-31 05:34N 51°12' E 001°44'10 9.5
2015-Mar-31 04:33N 51°20' E 001°52'8 8.3
2015-Mar-31 03:34N 51°24' E 002°03'9 8.3
2015-Mar-31 02:31N 51°21' E 002°16'5 5.5
2015-Mar-31 01:33N 51°22' E 002°24'6 6.6
2015-Mar-31 00:33N 51°23' E 002°35'7 7.4
2015-Mar-30 23:33N 51°22' E 002°46'9 9.0
2015-Mar-30 22:33N 51°24' E 003°00'10 9.7
2015-Mar-30 21:31N 51°25' E 003°17'9 9.5
2015-Mar-30 20:33N 51°26' E 003°31'7 6.9
2015-Mar-30 19:33N 51°26' E 003°42'7 7.1
2015-Mar-30 18:33N 51°20' E 003°49'2 1.7
2015-Mar-30 17:33N 51°18' E 003°50'7 6.8
2015-Mar-30 16:33N 51°12' E 003°48'3 2.4
2015-Mar-30 15:19N 51°09' E 003°47'0 0.0
2015-Mar-30 14:31N 51°09' E 003°47'0 0.0
2015-Mar-29 14:12N 51°09' E 003°47'0 0.1
2015-Mar-29 13:33N 51°09' E 003°47'5 5.1
2015-Mar-29 12:34N 51°14' E 003°48'6 5.8
2015-Mar-29 11:33N 51°20' E 003°49'1 1.0
2015-Mar-29 10:33N 51°21' E 003°49'7 7.6
2015-Mar-29 09:34N 51°26' E 003°40'6 6.3
2015-Mar-29 08:33N 51°25' E 003°30'7 6.6
2015-Mar-29 07:33N 51°24' E 003°20'10 7.7
2015-Mar-29 06:11N 51°24' E 003°03'710.1
2015-Mar-29 05:32N 51°22' E 002°54'9 8.4
2015-Mar-29 04:26N 51°22' E 002°39'6 6.7
2015-Mar-29 03:31N 51°22' E 002°29'1110.8
2015-Mar-29 02:32N 51°17' E 002°14'1111.3
2015-Mar-29 01:33N 51°12' E 001°58'1313.2
2015-Mar-29 00:33N 51°05' E 001°40'1413.5
2015-Mar-28 23:30N 50°54' E 001°27'4912.1
2015-Mar-28 19:27N 50°25' E 000°24'44010.7
2015-Mar-27 02:28N 52°04' W 011°02'1011.2
2015-Mar-27 01:32N 52°14' W 010°58'3210.6
2015-Mar-26 22:33N 52°31' W 010°15'10 9.8
2015-Mar-26 21:33N 52°31' W 009°59'3 0.1
2015-Mar-25 16:32N 52°31' W 010°04'1312.4
2015-Mar-25 15:27N 52°25' W 010°24'1412.7
2015-Mar-25 14:21N 52°18' W 010°43'1012.3
2015-Mar-25 13:32N 52°11' W 010°55'  

Dump ship's entire track history